createdAt,value
2018-12-13T00:02:06.535Z,2.79
2018-12-13T00:04:35.659Z,2.79
2018-12-13T00:07:13.675Z,2.76
2018-12-13T00:09:42.229Z,2.74
2018-12-13T00:12:12.548Z,2.72
2018-12-13T00:14:42.613Z,2.66
2018-12-13T00:17:11.984Z,2.66
2018-12-13T00:19:40.919Z,2.55
2018-12-13T00:22:11.833Z,2.49
2018-12-13T00:24:42.820Z,2.42
2018-12-13T00:27:12.958Z,2.32
2018-12-13T00:29:43.396Z,2.20
2018-12-13T00:32:13.962Z,2.07
2018-12-13T00:34:44.247Z,1.97
2018-12-13T00:37:13.800Z,1.82
2018-12-13T00:39:44.709Z,1.67
2018-12-13T00:42:13.777Z,1.51
2018-12-13T00:44:43.802Z,1.37
2018-12-13T00:47:14.447Z,1.24
2018-12-13T00:49:45.704Z,1.15
2018-12-13T00:52:17.587Z,1.14
2018-12-13T00:54:46.182Z,1.11
2018-12-13T00:57:16.216Z,1.03
2018-12-13T00:59:51.532Z,0.94
2018-12-13T01:02:20.204Z,0.84
2018-12-13T01:04:50.890Z,0.89
2018-12-13T01:07:20.989Z,0.95
2018-12-13T01:09:52.319Z,1.01
2018-12-13T01:12:23.004Z,1.19
2018-12-13T01:14:52.724Z,1.26
2018-12-13T01:17:23.575Z,1.33
2018-12-13T01:19:54.340Z,1.42
2018-12-13T01:22:24.863Z,1.51
2018-12-13T01:24:55.312Z,1.56
2018-12-13T01:27:24.033Z,1.61
2018-12-13T01:29:52.705Z,1.67
2018-12-13T01:32:22.513Z,1.71
2018-12-13T01:34:52.396Z,1.73
2018-12-13T01:37:21.736Z,1.77
2018-12-13T01:39:51.615Z,1.82
2018-12-13T01:42:20.384Z,1.77
2018-12-13T01:47:33.901Z,1.72
2018-12-13T01:52:39.268Z,1.65
2018-12-13T01:55:07.711Z,1.65
2018-12-13T01:57:36.113Z,1.62
2018-12-13T02:00:05.407Z,1.63
2018-12-13T02:02:33.849Z,1.63
2018-12-13T02:05:02.440Z,1.68
2018-12-13T02:07:30.991Z,1.69
2018-12-13T02:09:59.419Z,1.68
2018-12-13T02:12:28.181Z,1.71
2018-12-13T02:14:56.735Z,1.74
2018-12-13T02:17:25.206Z,1.75
2018-12-13T02:19:53.664Z,1.72
2018-12-13T02:22:22.055Z,1.65
2018-12-13T02:24:50.468Z,1.59
2018-12-13T02:27:18.911Z,1.52
2018-12-13T02:29:47.357Z,1.39
2018-12-13T02:32:15.760Z,1.27
2018-12-13T02:34:44.348Z,1.25
2018-12-13T02:37:12.755Z,1.26
2018-12-13T02:39:41.156Z,1.22
2018-12-13T02:42:09.915Z,1.15
2018-12-13T02:44:38.364Z,1.07
2018-12-13T02:47:06.806Z,1.04
2018-12-13T02:49:35.240Z,1.03
2018-12-13T02:52:04.018Z,1.05
2018-12-13T02:54:32.749Z,1.14
2018-12-13T02:57:01.181Z,1.20
2018-12-13T02:59:30.033Z,1.15
2018-12-13T03:01:58.748Z,1.08
2018-12-13T03:07:13.828Z,0.74
2018-12-13T03:09:37.943Z,0.61
2018-12-13T03:12:07.354Z,0.50
2018-12-13T03:14:36.583Z,0.46
2018-12-13T03:17:05.223Z,0.39
2018-12-13T03:19:34.654Z,0.39
2018-12-13T03:22:03.135Z,0.23
2018-12-13T03:24:31.796Z,0.22
2018-12-13T03:27:01.905Z,0.30
2018-12-13T03:29:30.418Z,0.26
2018-12-13T03:32:04.289Z,0.20
2018-12-13T03:34:35.994Z,0.14
2018-12-13T03:37:09.863Z,0.03
2018-12-13T03:39:41.764Z,-0.08
2018-12-13T03:42:13.300Z,-0.16
2018-12-13T03:44:50.138Z,-0.23
2018-12-13T03:47:22.851Z,-0.25
2018-12-13T03:49:53.062Z,-0.36
2018-12-13T03:52:21.668Z,-0.43
2018-12-13T03:54:50.088Z,-0.49
2018-12-13T03:57:19.029Z,-0.53
2018-12-13T03:59:47.448Z,-0.56
2018-12-13T04:02:16.903Z,-0.50
2018-12-13T04:04:45.287Z,-0.49
2018-12-13T04:07:13.716Z,-0.47
2018-12-13T04:09:42.100Z,-0.42
2018-12-13T04:12:10.517Z,-0.51
2018-12-13T04:14:38.935Z,-0.58
2018-12-13T04:17:07.363Z,-0.60
2018-12-13T04:19:35.845Z,-0.63
2018-12-13T04:22:04.261Z,-0.71
2018-12-13T04:24:32.670Z,-0.75
2018-12-13T04:27:01.093Z,-0.83
2018-12-13T04:29:29.520Z,-0.85
2018-12-13T04:31:57.960Z,-0.84
2018-12-13T04:34:26.366Z,-0.91
2018-12-13T04:36:54.774Z,-0.91
2018-12-13T04:39:23.166Z,-0.87
2018-12-13T04:41:51.547Z,-0.82
2018-12-13T04:44:19.930Z,-0.84
2018-12-13T04:46:48.330Z,-0.75
2018-12-13T04:49:17.104Z,-0.70
2018-12-13T04:51:45.524Z,-0.79
2018-12-13T04:54:13.901Z,-0.80
2018-12-13T04:56:42.305Z,-0.83
2018-12-13T04:59:10.700Z,-0.79
2018-12-13T05:01:39.095Z,-0.80
2018-12-13T05:04:07.461Z,-0.91
2018-12-13T05:06:35.894Z,-0.87
2018-12-13T05:09:07.320Z,-0.91
2018-12-13T05:11:35.768Z,-0.98
2018-12-13T05:14:04.179Z,-0.82
2018-12-13T05:16:32.601Z,-0.75
2018-12-13T05:19:01.003Z,-0.77
2018-12-13T05:21:30.407Z,-0.79
2018-12-13T05:23:59.270Z,-0.77
2018-12-13T05:26:27.679Z,-0.83
2018-12-13T05:28:56.087Z,-0.78
2018-12-13T05:31:24.535Z,-0.78
2018-12-13T05:33:53.685Z,-0.75
2018-12-13T05:36:22.086Z,-0.97
2018-12-13T05:38:51.428Z,-1.01
2018-12-13T05:41:19.856Z,-1.18
2018-12-13T05:43:52.427Z,-1.06
2018-12-13T05:46:20.830Z,-1.13
2018-12-13T05:48:49.344Z,-1.06
2018-12-13T05:51:17.768Z,-1.03
2018-12-13T05:53:46.163Z,-0.97
2018-12-13T05:56:14.587Z,-0.91
2018-12-13T05:58:42.959Z,-0.91
2018-12-13T06:01:11.655Z,-1.04
2018-12-13T06:03:40.070Z,-1.11
2018-12-13T06:06:08.483Z,-1.21
2018-12-13T06:08:36.932Z,-1.21
2018-12-13T06:11:05.337Z,-1.28
2018-12-13T06:13:33.742Z,-1.32
2018-12-13T06:16:02.171Z,-1.39
2018-12-13T06:18:30.578Z,-1.30
2018-12-13T06:20:59.008Z,-1.32
2018-12-13T06:23:27.407Z,-1.31
2018-12-13T06:25:55.800Z,-1.26
2018-12-13T06:28:24.192Z,-1.34
2018-12-13T06:30:52.607Z,-1.46
2018-12-13T06:33:24.801Z,-1.51
2018-12-13T06:35:51.468Z,-1.54
2018-12-13T06:38:19.875Z,-1.51
2018-12-13T06:40:48.256Z,-1.43
2018-12-13T06:43:16.651Z,-1.26
2018-12-13T06:45:45.047Z,-1.08
2018-12-13T06:48:13.440Z,-0.89
2018-12-13T06:50:41.826Z,-0.67
2018-12-13T06:53:10.222Z,-0.62
2018-12-13T06:55:38.624Z,-0.61
2018-12-13T06:58:07.315Z,-0.60
2018-12-13T07:00:35.711Z,-0.59
2018-12-13T07:03:35.117Z,-0.60
2018-12-13T07:06:03.509Z,-0.59
2018-12-13T07:08:32.034Z,-0.65
2018-12-13T07:11:00.400Z,-0.70
2018-12-13T07:13:28.879Z,-0.76
2018-12-13T07:15:57.269Z,-0.85
2018-12-13T07:18:25.675Z,-0.96
2018-12-13T07:20:54.220Z,-1.06
2018-12-13T07:23:22.648Z,-1.17
2018-12-13T07:25:51.058Z,-1.25
2018-12-13T07:28:19.484Z,-1.26
2018-12-13T07:30:47.916Z,-1.30
2018-12-13T07:33:16.327Z,-1.23
2018-12-13T07:35:44.714Z,-1.22
2018-12-13T07:38:14.350Z,-1.24
2018-12-13T07:40:43.069Z,-1.12
2018-12-13T07:43:11.483Z,-1.07
2018-12-13T07:45:39.873Z,-1.04
2018-12-13T07:48:08.299Z,-1.01
2018-12-13T07:50:36.701Z,-1.02
2018-12-13T07:53:05.176Z,-0.97
2018-12-13T07:55:33.588Z,-0.89
2018-12-13T07:58:02.041Z,-0.87
2018-12-13T08:00:30.446Z,-0.80
2018-12-13T08:02:58.875Z,-0.67
2018-12-13T08:05:27.324Z,-0.55
2018-12-13T08:07:55.753Z,-0.47
2018-12-13T08:10:24.167Z,-0.42
2018-12-13T08:12:52.608Z,-0.35
2018-12-13T08:15:21.032Z,-0.27
2018-12-13T08:17:50.166Z,-0.27
2018-12-13T08:20:18.568Z,-0.24
2018-12-13T08:22:47.020Z,-0.22
2018-12-13T08:25:15.455Z,-0.11
2018-12-13T08:27:43.880Z,-0.08
2018-12-13T08:30:12.307Z,0.03
2018-12-13T08:32:42.128Z,0.07
2018-12-13T08:35:10.579Z,0.17
2018-12-13T08:37:39.023Z,0.19
2018-12-13T08:40:07.464Z,0.19
2018-12-13T08:42:35.899Z,0.21
2018-12-13T08:45:04.699Z,0.29
2018-12-13T08:47:33.161Z,0.38
2018-12-13T08:50:02.671Z,0.48
2018-12-13T08:52:31.097Z,0.52
2018-12-13T08:54:59.551Z,0.52
2018-12-13T08:57:27.987Z,0.50
2018-12-13T08:59:56.403Z,0.51
2018-12-13T09:02:25.109Z,0.54
2018-12-13T09:04:53.495Z,0.53
2018-12-13T09:07:22.125Z,0.56
2018-12-13T09:09:50.742Z,0.57
2018-12-13T09:12:19.263Z,0.63
2018-12-13T09:14:47.750Z,0.67
2018-12-13T09:17:16.307Z,0.74
2018-12-13T09:19:44.785Z,0.75
2018-12-13T09:22:13.163Z,0.79
2018-12-13T09:24:41.559Z,0.81
2018-12-13T09:27:09.958Z,0.85
2018-12-13T09:29:38.419Z,0.91
2018-12-13T09:32:06.929Z,0.98
2018-12-13T09:34:39.863Z,0.99
2018-12-13T09:37:08.744Z,1.02
2018-12-13T09:39:37.331Z,1.08
2018-12-13T09:42:05.758Z,1.11
2018-12-13T09:44:34.198Z,1.15
2018-12-13T09:47:15.965Z,1.19
2018-12-13T09:49:44.419Z,1.22
2018-12-13T09:52:12.935Z,1.25
2018-12-13T09:54:41.353Z,1.28
2018-12-13T09:57:09.839Z,1.28
2018-12-13T09:59:38.265Z,1.37
2018-12-13T10:02:06.696Z,1.42
2018-12-13T10:04:35.120Z,1.48
2018-12-13T10:07:03.524Z,1.50
2018-12-13T10:09:31.941Z,1.55
2018-12-13T10:12:00.494Z,1.62
2018-12-13T10:14:28.973Z,1.67
2018-12-13T10:16:57.388Z,1.72
2018-12-13T10:19:25.852Z,1.73
2018-12-13T10:21:54.237Z,1.80
2018-12-13T10:24:22.716Z,1.95
2018-12-13T10:26:51.129Z,2.08
2018-12-13T10:29:19.604Z,2.23
2018-12-13T10:31:48.188Z,2.30
2018-12-13T10:34:16.669Z,2.46
2018-12-13T10:36:45.139Z,2.50
2018-12-13T10:39:13.623Z,2.60
2018-12-13T10:41:42.290Z,2.61
2018-12-13T10:44:10.896Z,2.61
2018-12-13T10:46:39.331Z,2.57
2018-12-13T10:49:07.781Z,2.60
2018-12-13T10:51:36.484Z,2.53
2018-12-13T10:54:05.205Z,2.56
2018-12-13T10:56:33.859Z,2.59
2018-12-13T10:59:02.741Z,2.50
2018-12-13T11:01:36.447Z,2.53
2018-12-13T11:04:04.971Z,2.41
2018-12-13T11:06:33.529Z,2.45
2018-12-13T11:09:02.089Z,2.45
2018-12-13T11:11:30.795Z,2.44
2018-12-13T11:14:00.759Z,2.52
2018-12-13T11:16:30.823Z,2.49
2018-12-13T11:19:00.036Z,2.47
2018-12-13T11:21:42.893Z,2.41
2018-12-13T11:24:14.254Z,2.36
2018-12-13T11:26:45.170Z,2.38
2018-12-13T11:29:29.915Z,2.48
2018-12-13T11:32:00.267Z,2.43
2018-12-13T11:34:29.864Z,2.46
2018-12-13T11:37:00.195Z,2.46
2018-12-13T11:39:40.143Z,2.43
2018-12-13T11:42:10.572Z,2.49
2018-12-13T11:44:44.049Z,2.48
2018-12-13T11:47:16.657Z,2.50
2018-12-13T11:49:47.392Z,2.46
2018-12-13T11:55:15.621Z,2.55
2018-12-13T11:57:45.264Z,2.58
2018-12-13T12:00:14.507Z,2.55
2018-12-13T12:02:46.108Z,2.58
2018-12-13T12:05:28.997Z,2.61
2018-12-13T12:07:59.537Z,2.64
2018-12-13T12:10:28.659Z,2.65
2018-12-13T12:13:05.317Z,2.64
2018-12-13T12:15:35.406Z,2.70
2018-12-13T12:18:04.723Z,2.74
2018-12-13T12:20:34.078Z,2.79
2018-12-13T12:23:04.272Z,2.76
2018-12-13T12:25:33.641Z,2.75
2018-12-13T12:28:05.160Z,2.81
2018-12-13T12:30:34.263Z,2.76
2018-12-13T12:33:04.611Z,2.77
2018-12-13T12:35:33.613Z,2.74
2018-12-13T12:38:15.527Z,2.75
2018-12-13T12:40:45.295Z,2.70
2018-12-13T12:43:16.263Z,2.73
2018-12-13T12:45:45.028Z,2.65
2018-12-13T12:48:14.272Z,2.70
2018-12-13T12:50:46.792Z,2.71
2018-12-13T12:53:18.441Z,2.78
2018-12-13T12:55:47.631Z,2.77
2018-12-13T12:58:17.062Z,2.78
2018-12-13T13:00:46.394Z,2.75
2018-12-13T13:03:15.505Z,2.71
2018-12-13T13:05:45.928Z,2.75
2018-12-13T13:08:14.547Z,2.72
2018-12-13T13:10:44.888Z,2.80
2018-12-13T13:13:14.645Z,2.88
2018-12-13T13:15:44.024Z,2.89
2018-12-13T13:18:12.567Z,2.73
2018-12-13T13:20:42.912Z,2.87
2018-12-13T13:23:12.857Z,2.97
2018-12-13T13:25:41.931Z,2.95
2018-12-13T13:28:14.252Z,2.90
2018-12-13T13:30:44.870Z,2.77
2018-12-13T13:33:14.910Z,2.69
2018-12-13T13:35:44.599Z,2.70
2018-12-13T13:38:14.689Z,2.65
2018-12-13T13:40:43.779Z,2.67
2018-12-13T13:43:12.824Z,2.71
2018-12-13T13:45:42.103Z,2.76
2018-12-13T13:48:12.487Z,2.77
2018-12-13T13:50:42.845Z,2.70
2018-12-13T13:53:12.920Z,2.60
2018-12-13T13:55:41.906Z,2.54
2018-12-13T13:58:11.006Z,2.55
2018-12-13T14:00:40.593Z,2.59
2018-12-13T14:03:10.335Z,2.52
2018-12-13T14:05:39.166Z,2.49
2018-12-13T14:08:08.514Z,2.57
2018-12-13T14:10:38.191Z,2.53
2018-12-13T14:13:08.176Z,2.51
2018-12-13T14:15:37.962Z,2.45
2018-12-13T14:18:08.372Z,2.48
2018-12-13T14:20:50.214Z,2.30
2018-12-13T14:23:20.333Z,2.31
2018-12-13T14:25:51.016Z,2.26
2018-12-13T14:28:21.068Z,2.29
2018-12-13T14:30:51.572Z,2.20
2018-12-13T14:33:21.336Z,2.15
2018-12-13T14:35:51.791Z,2.14
2018-12-13T14:38:27.608Z,2.12
2018-12-13T14:40:57.654Z,2.05
2018-12-13T14:43:26.610Z,2.05
2018-12-13T14:45:57.001Z,1.97
2018-12-13T14:48:26.536Z,1.90
2018-12-13T14:50:59.073Z,1.90
2018-12-13T14:53:29.338Z,1.87
2018-12-13T14:55:59.463Z,1.74
2018-12-13T14:58:30.920Z,1.69
2018-12-13T15:01:01.328Z,1.61
2018-12-13T15:03:31.598Z,1.45
2018-12-13T15:06:01.477Z,1.45
2018-12-13T15:08:31.254Z,1.42
2018-12-13T15:11:01.908Z,1.31
2018-12-13T15:16:24.854Z,1.20
2018-12-13T15:19:09.103Z,1.07
2018-12-13T15:21:38.776Z,0.91
2018-12-13T15:24:08.264Z,0.82
2018-12-13T15:26:45.673Z,0.68
2018-12-13T15:29:15.652Z,0.73
2018-12-13T15:31:45.475Z,0.70
2018-12-13T15:34:16.493Z,0.56
2018-12-13T15:36:48.048Z,0.43
2018-12-13T15:39:17.785Z,0.28
2018-12-13T15:41:47.575Z,0.20
2018-12-13T15:44:16.333Z,0.12
2018-12-13T15:46:45.469Z,0.05
2018-12-13T15:49:14.892Z,-0.13
2018-12-13T15:51:45.423Z,-0.15
2018-12-13T15:54:15.028Z,-0.22
2018-12-13T15:56:44.840Z,-0.27
2018-12-13T15:59:17.080Z,-0.29
2018-12-13T16:01:47.498Z,-0.22
2018-12-13T16:04:16.852Z,-0.20
2018-12-13T16:06:48.100Z,-0.03
2018-12-13T16:09:17.378Z,0.20
2018-12-13T16:11:51.235Z,0.46
2018-12-13T16:14:20.711Z,0.74
2018-12-13T16:16:50.363Z,0.94
2018-12-13T16:19:19.579Z,0.99
2018-12-13T16:21:48.901Z,1.01
2018-12-13T16:24:18.878Z,1.11
2018-12-13T16:26:47.800Z,1.16
2018-12-13T16:29:18.009Z,1.12
2018-12-13T16:31:47.809Z,1.11
2018-12-13T16:34:17.685Z,1.12
2018-12-13T16:36:48.237Z,1.10
2018-12-13T16:39:17.146Z,1.09
2018-12-13T16:41:47.266Z,1.08
2018-12-13T16:44:16.894Z,1.02
2018-12-13T16:46:48.608Z,0.99
2018-12-13T16:49:18.826Z,1.01
2018-12-13T16:51:48.367Z,1.00
2018-12-13T16:54:17.426Z,0.94
2018-12-13T16:56:48.052Z,0.98
2018-12-13T16:59:18.437Z,0.96
2018-12-13T17:01:52.298Z,0.90
2018-12-13T17:04:21.495Z,0.85
2018-12-13T17:06:50.807Z,0.83
2018-12-13T17:09:20.533Z,0.80
2018-12-13T17:11:49.736Z,0.82
2018-12-13T17:14:18.555Z,0.87
2018-12-13T17:16:47.459Z,0.92
2018-12-13T17:19:17.985Z,0.96
2018-12-13T17:21:48.789Z,0.95
2018-12-13T17:24:17.780Z,1.02
2018-12-13T17:26:47.133Z,1.11
2018-12-13T17:29:17.185Z,1.20
2018-12-13T17:31:47.896Z,1.31
2018-12-13T17:34:17.575Z,1.40
2018-12-13T17:36:47.577Z,1.48
2018-12-13T17:39:17.434Z,1.51
2018-12-13T17:41:47.065Z,1.49
2018-12-13T17:44:16.650Z,1.57
2018-12-13T17:46:45.562Z,1.60
2018-12-13T17:49:14.401Z,1.56
2018-12-13T17:51:43.439Z,1.51
2018-12-13T17:54:12.865Z,1.53
2018-12-13T17:56:41.591Z,1.45
2018-12-13T17:59:10.978Z,1.41
2018-12-13T18:01:40.598Z,1.39
2018-12-13T18:04:10.832Z,1.39
2018-12-13T18:06:40.145Z,1.39
2018-12-13T18:09:09.708Z,1.40
2018-12-13T18:11:38.459Z,1.40
2018-12-13T18:14:08.416Z,1.43
2018-12-13T18:16:43.365Z,1.40
2018-12-13T18:19:10.927Z,1.38
2018-12-13T18:21:40.728Z,1.37
2018-12-13T18:24:09.399Z,1.35
2018-12-13T18:26:38.239Z,1.35
2018-12-13T18:29:07.667Z,1.35
2018-12-13T18:31:36.212Z,1.36
2018-12-13T18:34:04.620Z,1.34
2018-12-13T18:36:33.184Z,1.31
2018-12-13T18:39:02.190Z,1.30
2018-12-13T18:41:30.612Z,1.35
2018-12-13T18:43:59.000Z,1.30
2018-12-13T18:46:27.396Z,1.34
2018-12-13T18:48:55.815Z,1.39
2018-12-13T18:51:24.284Z,1.43
2018-12-13T18:53:52.685Z,1.45
2018-12-13T18:56:21.158Z,1.43
2018-12-13T18:58:50.177Z,1.44
2018-12-13T19:01:19.956Z,1.45
2018-12-13T19:03:49.305Z,1.44
2018-12-13T19:06:29.024Z,1.50
2018-12-13T19:08:57.880Z,1.53
2018-12-13T19:11:26.552Z,1.53
2018-12-13T19:13:56.196Z,1.52
2018-12-13T19:16:24.789Z,1.55
2018-12-13T19:18:54.453Z,1.50
2018-12-13T19:21:23.419Z,1.52
2018-12-13T19:23:51.943Z,1.58
2018-12-13T19:26:20.674Z,1.63
2018-12-13T19:29:12.683Z,1.61
2018-12-13T19:45:20.500Z,1.40
2018-12-13T19:47:49.336Z,1.48
2018-12-13T19:50:17.971Z,1.46
2018-12-13T19:52:46.635Z,1.45
2018-12-13T19:55:15.244Z,1.48
2018-12-13T19:57:43.664Z,1.48
2018-12-13T20:00:12.272Z,1.48
2018-12-13T20:02:40.774Z,1.47
2018-12-13T20:05:09.263Z,1.44
2018-12-13T20:07:37.671Z,1.44
2018-12-13T20:10:07.417Z,1.44
2018-12-13T20:12:35.809Z,1.46
2018-12-13T20:15:05.026Z,1.48
2018-12-13T20:17:33.438Z,1.40
2018-12-13T20:20:01.858Z,1.43
2018-12-13T20:22:30.257Z,1.42
2018-12-13T20:24:58.685Z,1.39
2018-12-13T20:27:27.322Z,1.39
2018-12-13T20:29:55.763Z,1.40
2018-12-13T20:32:24.767Z,1.42
2018-12-13T20:34:53.225Z,1.40
2018-12-13T20:37:21.625Z,1.39
2018-12-13T20:39:50.124Z,1.39
2018-12-13T20:42:18.518Z,1.46
2018-12-13T20:44:47.020Z,1.43
2018-12-13T20:47:15.476Z,1.42
2018-12-13T20:49:43.884Z,1.34
2018-12-13T20:52:12.324Z,1.36
2018-12-13T20:54:40.783Z,1.46
2018-12-13T20:57:09.201Z,1.42
2018-12-13T20:59:37.813Z,1.44
2018-12-13T21:02:06.251Z,1.44
2018-12-13T21:04:34.648Z,1.46
2018-12-13T21:07:08.382Z,1.41
2018-12-13T21:09:36.769Z,1.31
2018-12-13T21:12:05.259Z,1.41
2018-12-13T21:14:33.736Z,1.44
2018-12-13T21:17:02.405Z,1.41
2018-12-13T21:19:30.821Z,1.36
2018-12-13T21:21:59.260Z,1.37
2018-12-13T21:24:27.755Z,1.34
2018-12-13T21:26:56.167Z,1.29
2018-12-13T21:29:24.618Z,1.24
2018-12-13T21:31:53.061Z,1.27
2018-12-13T21:34:21.494Z,1.28
2018-12-13T21:36:49.921Z,1.25
2018-12-13T21:39:18.337Z,1.25
2018-12-13T21:41:46.767Z,1.26
2018-12-13T21:44:15.159Z,1.29
2018-12-13T21:46:44.200Z,1.24
2018-12-13T21:49:12.730Z,1.24
2018-12-13T21:51:41.179Z,1.25
2018-12-13T21:54:09.625Z,1.23
2018-12-13T21:56:38.055Z,1.21
2018-12-13T21:59:06.476Z,1.24
2018-12-13T22:01:34.890Z,1.23
2018-12-13T22:04:03.344Z,1.29
2018-12-13T22:06:31.800Z,1.28
2018-12-13T22:09:00.238Z,1.36
2018-12-13T22:11:28.699Z,1.49
2018-12-13T22:13:57.142Z,1.55
2018-12-13T22:16:25.807Z,1.59
2018-12-13T22:18:55.472Z,1.61
2018-12-13T22:21:24.055Z,1.61
2018-12-13T22:23:52.476Z,1.59
2018-12-13T22:26:20.975Z,1.56
2018-12-13T22:31:28.556Z,1.54
2018-12-13T22:33:57.053Z,1.54
2018-12-13T22:36:25.718Z,1.55
2018-12-13T22:38:54.168Z,1.56
2018-12-13T22:41:26.340Z,1.53
2018-12-13T22:43:53.128Z,1.50
2018-12-13T22:46:21.552Z,1.49
2018-12-13T22:48:50.021Z,1.46
2018-12-13T22:51:18.486Z,1.46
2018-12-13T22:53:46.946Z,1.45
2018-12-13T22:56:15.380Z,1.49
2018-12-13T22:58:45.100Z,1.51
2018-12-13T23:01:13.775Z,1.48
2018-12-13T23:03:42.168Z,1.41
2018-12-13T23:06:10.640Z,1.46
2018-12-13T23:08:39.167Z,1.44
2018-12-13T23:11:08.059Z,1.45
2018-12-13T23:13:36.559Z,1.44
2018-12-13T23:16:04.964Z,1.42
2018-12-13T23:18:34.234Z,1.46
2018-12-13T23:21:02.642Z,1.46
2018-12-13T23:23:31.042Z,1.45
2018-12-13T23:25:59.481Z,1.48
2018-12-13T23:28:27.884Z,1.48
2018-12-13T23:30:56.331Z,1.52
2018-12-13T23:33:24.738Z,1.45
2018-12-13T23:35:53.159Z,1.41
2018-12-13T23:38:21.570Z,1.38
2018-12-13T23:40:50.057Z,1.41
2018-12-13T23:43:18.562Z,1.39
2018-12-13T23:45:47.005Z,1.38
2018-12-13T23:48:15.408Z,1.38
2018-12-13T23:50:43.819Z,1.39
2018-12-13T23:53:12.221Z,1.37
2018-12-13T23:55:40.620Z,1.35
2018-12-13T23:58:09.047Z,1.36
